createdAt,value
2023-04-10T00:00:01.477Z,6.6005
2023-04-10T00:01:05.370Z,4.8182
2023-04-10T00:02:09.283Z,6.6428
2023-04-10T00:03:13.499Z,7.0362
2023-04-10T00:04:17.675Z,6.6688
2023-04-10T00:05:21.626Z,6.9962
2023-04-10T00:06:26.481Z,6.5915
2023-04-10T00:07:30.367Z,6.3304
2023-04-10T00:08:34.254Z,6.5839
2023-04-10T00:09:38.145Z,7.2005
2023-04-10T00:10:42.035Z,6.7745
2023-04-10T00:11:45.920Z,6.8832
2023-04-10T00:12:49.831Z,7.3358
2023-04-10T00:13:53.928Z,7.5933
2023-04-10T00:14:57.900Z,6.8302
2023-04-10T00:16:01.788Z,6.8365
2023-04-10T00:17:05.773Z,6.6758
2023-04-10T00:18:09.652Z,6.3001
2023-04-10T00:19:13.566Z,7.2555
2023-04-10T00:20:17.463Z,9.0196
2023-04-10T00:21:21.358Z,7.4838
2023-04-10T00:22:25.238Z,6.9891
2023-04-10T00:23:29.160Z,7.2137
2023-04-10T00:24:33.046Z,7.5014
2023-04-10T00:25:36.948Z,8.9910
2023-04-10T00:26:40.851Z,8.3999
2023-04-10T00:27:44.743Z,6.8016
2023-04-10T00:28:48.623Z,6.9160
2023-04-10T00:29:52.516Z,8.2942
2023-04-10T00:30:56.422Z,8.2954
2023-04-10T00:32:00.303Z,7.1119
2023-04-10T00:33:04.324Z,7.1165
2023-04-10T00:34:08.230Z,8.0329
2023-04-10T00:35:12.125Z,9.1268
2023-04-10T00:36:16.068Z,7.5162
2023-04-10T00:37:19.922Z,7.4416
2023-04-10T00:38:23.834Z,6.7019
2023-04-10T00:39:27.949Z,5.9727
2023-04-10T00:40:32.125Z,9.2722
2023-04-10T00:41:36.039Z,7.6538
2023-04-10T00:42:39.912Z,8.1858
2023-04-10T00:43:44.041Z,7.9275
2023-04-10T00:44:47.926Z,8.0222
2023-04-10T00:45:51.843Z,6.7270
2023-04-10T00:46:55.963Z,7.1674
2023-04-10T00:47:59.887Z,8.0397
2023-04-10T00:49:03.764Z,8.0801
2023-04-10T00:50:07.651Z,9.0374
2023-04-10T00:51:11.533Z,7.9404
2023-04-10T00:52:15.446Z,7.7836
2023-04-10T00:53:19.332Z,9.1883
2023-04-10T00:54:23.240Z,6.9300
2023-04-10T00:55:27.120Z,8.0158
2023-04-10T00:56:31.253Z,7.6173
2023-04-10T00:57:35.125Z,7.7539
2023-04-10T00:58:39.030Z,7.3699
2023-04-10T00:59:42.932Z,8.1482
2023-04-10T01:00:46.830Z,8.3658
2023-04-10T01:01:51.135Z,8.1219
2023-04-10T01:02:55.167Z,8.4222
2023-04-10T01:04:00.164Z,8.6112
2023-04-10T01:05:04.288Z,9.3029
2023-04-10T01:06:08.204Z,8.5105
2023-04-10T01:07:12.294Z,9.1030
2023-04-10T01:08:16.200Z,7.1408
2023-04-10T01:09:20.086Z,7.6565
2023-04-10T01:10:24.002Z,7.9111
2023-04-10T01:11:27.876Z,7.6773
2023-04-10T01:12:31.793Z,8.8687
2023-04-10T01:13:35.664Z,7.6141
2023-04-10T01:14:39.635Z,8.1472
2023-04-10T01:15:43.558Z,8.5064
2023-04-10T01:16:47.503Z,8.4925
2023-04-10T01:17:51.389Z,8.8766
2023-04-10T01:18:55.256Z,8.2497
2023-04-10T01:19:59.128Z,8.3591
2023-04-10T01:21:03.055Z,7.4930
2023-04-10T01:22:06.941Z,8.3020
2023-04-10T01:23:10.836Z,8.0567
2023-04-10T01:24:14.728Z,10.0693
2023-04-10T01:25:18.631Z,10.4349
2023-04-10T01:26:22.540Z,10.7333
2023-04-10T01:27:26.430Z,10.2978
2023-04-10T01:28:30.315Z,10.2725
2023-04-10T01:29:34.210Z,9.0293
2023-04-10T01:30:38.111Z,9.6756
2023-04-10T01:31:42.172Z,9.9133
2023-04-10T01:32:46.106Z,9.1708
2023-04-10T01:33:50.285Z,8.4713
2023-04-10T01:34:54.190Z,8.3393
2023-04-10T01:35:58.171Z,8.8123
2023-04-10T01:37:02.118Z,9.1565
2023-04-10T01:38:05.999Z,9.4495
2023-04-10T01:39:10.034Z,10.2245
2023-04-10T01:40:13.902Z,8.7632
2023-04-10T01:41:17.795Z,9.1116
2023-04-10T01:42:21.699Z,10.2556
2023-04-10T01:43:25.573Z,9.4736
2023-04-10T01:44:29.485Z,9.1737
2023-04-10T01:45:33.370Z,8.3086
2023-04-10T01:46:37.537Z,10.0224
2023-04-10T01:47:41.483Z,9.9741
2023-04-10T01:48:45.374Z,9.7374
2023-04-10T01:49:49.261Z,10.4757
2023-04-10T01:50:53.154Z,8.4949
2023-04-10T01:51:57.040Z,8.5570
2023-04-10T01:53:00.959Z,9.0509
2023-04-10T01:54:06.982Z,10.9023
2023-04-10T01:55:05.784Z,10.6340
2023-04-10T01:56:09.660Z,10.1977
2023-04-10T01:57:13.886Z,10.3914
2023-04-10T01:58:18.095Z,9.4681
2023-04-10T01:59:21.998Z,9.6448
2023-04-10T02:00:25.911Z,10.0783
2023-04-10T02:01:30.614Z,9.8524
2023-04-10T02:02:34.786Z,10.0850
2023-04-10T02:03:38.952Z,9.0359
2023-04-10T02:04:43.011Z,9.4742
2023-04-10T02:05:46.887Z,9.1174
2023-04-10T02:06:51.244Z,10.3625
2023-04-10T02:07:55.211Z,9.8394
2023-04-10T02:08:59.448Z,12.2540
2023-04-10T02:10:03.391Z,13.1553
2023-04-10T02:11:03.772Z,9.8951
2023-04-10T02:12:07.930Z,10.2782
2023-04-10T02:13:11.866Z,9.8171
2023-04-10T02:14:15.971Z,10.8419
2023-04-10T02:15:19.872Z,11.9968
2023-04-10T02:16:23.823Z,10.8791
2023-04-10T02:17:27.759Z,11.5531
2023-04-10T02:18:31.635Z,9.2533
2023-04-10T02:19:35.534Z,10.8849
2023-04-10T02:20:39.420Z,9.6574
2023-04-10T02:21:43.337Z,11.0189
2023-04-10T02:22:47.240Z,13.0800
2023-04-10T02:23:51.265Z,10.5953
2023-04-10T02:24:55.287Z,10.1775
2023-04-10T02:25:59.219Z,9.6884
2023-04-10T02:27:03.106Z,10.1718
2023-04-10T02:28:07.003Z,9.5585
2023-04-10T02:29:10.912Z,10.5023
2023-04-10T02:30:14.852Z,10.1908
2023-04-10T02:31:18.947Z,10.7739
2023-04-10T02:32:22.837Z,12.8489
2023-04-10T02:33:26.704Z,11.5439
2023-04-10T02:34:30.621Z,11.0376
2023-04-10T02:35:34.554Z,11.6932
2023-04-10T02:36:38.405Z,12.5953
2023-04-10T02:37:42.319Z,10.4270
2023-04-10T02:38:46.200Z,12.4228
2023-04-10T02:39:50.110Z,11.0501
2023-04-10T02:40:53.995Z,12.2412
2023-04-10T02:41:57.905Z,11.6511
2023-04-10T02:43:01.787Z,10.6771
2023-04-10T02:44:05.699Z,12.3159
2023-04-10T02:45:09.582Z,10.5599
2023-04-10T02:46:13.529Z,10.6484
2023-04-10T02:47:17.419Z,12.6471
2023-04-10T02:48:21.300Z,12.1246
2023-04-10T02:49:25.526Z,9.8450
2023-04-10T02:50:29.420Z,11.3736
2023-04-10T02:51:33.318Z,12.3802
2023-04-10T02:52:37.204Z,12.5963
2023-04-10T02:53:41.119Z,13.1943
2023-04-10T02:54:44.998Z,12.1314
2023-04-10T02:55:48.936Z,12.1203
2023-04-10T02:56:52.847Z,11.3900
2023-04-10T02:57:56.757Z,11.2888
2023-04-10T02:59:00.644Z,10.8656
2023-04-10T03:00:04.564Z,11.0816
2023-04-10T03:01:08.463Z,11.7234
2023-04-10T03:03:16.268Z,11.7664
2023-04-10T03:04:20.600Z,12.0684
2023-04-10T03:05:24.530Z,12.8298
2023-04-10T03:06:28.539Z,12.3116
2023-04-10T03:07:32.405Z,13.4594
2023-04-10T03:08:36.332Z,11.7629
2023-04-10T03:09:40.215Z,11.0352
2023-04-10T03:10:44.125Z,12.5462
2023-04-10T03:11:48.019Z,12.1741
2023-04-10T03:12:51.926Z,11.6792
2023-04-10T03:13:55.949Z,11.8600
2023-04-10T03:14:59.895Z,10.7163
2023-04-10T03:16:03.847Z,14.6904
2023-04-10T03:17:07.733Z,13.7328
2023-04-10T03:18:11.626Z,13.3104
2023-04-10T03:19:15.742Z,13.3374
2023-04-10T03:20:19.648Z,12.3485
2023-04-10T03:21:23.558Z,13.4216
2023-04-10T03:22:27.473Z,13.7216
2023-04-10T03:23:31.386Z,11.2770
2023-04-10T03:24:35.506Z,13.3115
2023-04-10T03:25:39.403Z,15.2440
2023-04-10T03:26:43.274Z,14.2478
2023-04-10T03:27:47.170Z,12.1031
2023-04-10T03:28:51.044Z,12.6768
2023-04-10T03:29:55.185Z,13.0293
2023-04-10T03:30:59.055Z,12.6536
2023-04-10T03:32:03.254Z,12.0668
2023-04-10T03:33:07.127Z,13.6953
2023-04-10T03:34:11.051Z,13.1165
2023-04-10T03:35:14.920Z,14.1897
2023-04-10T03:36:18.862Z,13.6490
2023-04-10T03:37:22.991Z,12.9820
2023-04-10T03:38:26.884Z,12.6263
2023-04-10T03:39:30.794Z,13.1755
2023-04-10T03:40:34.693Z,13.2844
2023-04-10T03:41:38.829Z,13.2631
2023-04-10T03:42:42.757Z,13.1333
2023-04-10T03:43:46.615Z,12.3770
2023-04-10T03:44:50.877Z,13.3633
2023-04-10T03:45:54.764Z,12.6065
2023-04-10T03:46:58.680Z,12.5521
2023-04-10T03:48:02.603Z,12.1309
2023-04-10T03:49:06.546Z,11.7975
2023-04-10T03:50:10.430Z,12.1122
2023-04-10T03:51:14.336Z,13.1683
2023-04-10T03:52:18.472Z,12.0385
2023-04-10T03:53:22.372Z,13.2575
2023-04-10T03:54:26.268Z,12.8468
2023-04-10T03:55:30.146Z,12.9619
2023-04-10T03:56:34.056Z,12.6690
2023-04-10T03:57:38.268Z,12.9350
2023-04-10T03:58:42.184Z,13.5741
2023-04-10T03:59:46.199Z,13.3254
2023-04-10T04:00:50.108Z,15.5470
2023-04-10T04:01:54.031Z,13.1456
2023-04-10T04:02:58.196Z,13.5089
2023-04-10T04:04:02.632Z,12.2788
2023-04-10T04:05:06.698Z,12.3245
2023-04-10T04:06:10.590Z,11.8290
2023-04-10T04:07:14.739Z,13.8778
2023-04-10T04:08:18.620Z,13.7244
2023-04-10T04:09:22.840Z,11.0301
2023-04-10T04:10:26.730Z,14.1137
2023-04-10T04:11:30.638Z,12.8214
2023-04-10T04:12:34.528Z,12.8277
2023-04-10T04:13:38.442Z,14.0417
2023-04-10T04:14:42.332Z,14.9125
2023-04-10T04:15:46.240Z,13.4754
2023-04-10T04:16:50.402Z,13.9729
2023-04-10T04:17:54.343Z,12.9038
2023-04-10T04:18:58.287Z,13.6022
2023-04-10T04:20:02.498Z,15.8665
2023-04-10T04:21:06.371Z,13.2055
2023-04-10T04:22:10.284Z,12.9971
2023-04-10T04:23:14.153Z,15.1229
2023-04-10T04:24:18.447Z,16.1662
2023-04-10T04:25:22.321Z,15.6849
2023-04-10T04:26:26.219Z,15.2677
2023-04-10T04:27:30.339Z,17.2532
2023-04-10T04:28:34.229Z,16.8386
2023-04-10T04:29:38.115Z,12.6181
2023-04-10T04:30:42.036Z,17.1001
2023-04-10T04:31:45.982Z,16.7301
2023-04-10T04:32:49.884Z,16.5204
2023-04-10T04:33:53.985Z,15.3387
2023-04-10T04:34:58.000Z,15.5268
2023-04-10T04:36:01.916Z,15.0628
2023-04-10T04:37:06.066Z,14.9839
2023-04-10T04:38:09.936Z,15.2700
2023-04-10T04:39:13.860Z,14.1486
2023-04-10T04:40:17.959Z,15.8380
2023-04-10T04:41:21.870Z,14.0908
2023-04-10T04:42:25.766Z,15.1549
2023-04-10T04:43:29.664Z,18.1519
2023-04-10T04:44:33.558Z,15.3339
2023-04-10T04:45:37.494Z,14.7553
2023-04-10T04:46:43.271Z,15.0488
2023-04-10T04:47:43.159Z,15.7931
2023-04-10T04:48:47.015Z,16.3174
2023-04-10T04:49:50.941Z,15.9614
2023-04-10T04:50:54.841Z,16.4773
2023-04-10T04:51:58.738Z,17.3701
2023-04-10T04:53:02.627Z,18.5082
2023-04-10T04:54:06.575Z,15.8265
2023-04-10T04:55:10.475Z,15.5544
2023-04-10T04:56:14.391Z,14.9596
2023-04-10T04:57:18.256Z,15.6900
2023-04-10T04:58:22.173Z,15.3450
2023-04-10T04:59:26.055Z,16.1120
2023-04-10T05:00:29.960Z,17.3845
2023-04-10T05:01:33.946Z,17.0451
2023-04-10T05:02:37.968Z,17.7477
2023-04-10T05:03:41.996Z,16.7880
2023-04-10T05:04:45.916Z,17.2799
2023-04-10T05:05:49.826Z,17.8707
2023-04-10T05:06:55.240Z,17.8246
2023-04-10T05:07:59.114Z,15.3987
2023-04-10T05:09:03.012Z,15.4861
2023-04-10T05:10:06.927Z,15.2412
2023-04-10T05:11:10.808Z,16.9550
2023-04-10T05:12:14.709Z,16.5757
2023-04-10T05:13:18.626Z,15.7469
2023-04-10T05:14:22.507Z,16.6785
2023-04-10T05:15:26.458Z,17.2870
2023-04-10T05:16:30.331Z,18.7989
2023-04-10T05:17:34.522Z,16.2489
2023-04-10T05:18:38.401Z,15.4513
2023-04-10T05:19:42.275Z,14.9960
2023-04-10T05:20:46.179Z,16.4332
2023-04-10T05:21:50.067Z,17.0573
2023-04-10T05:22:54.140Z,16.5398
2023-04-10T05:23:58.018Z,15.9054
2023-04-10T05:25:01.952Z,13.0113
2023-04-10T05:26:05.813Z,14.3811
2023-04-10T05:27:09.932Z,15.3236
2023-04-10T05:28:13.808Z,15.3357
2023-04-10T05:29:17.714Z,15.4527
2023-04-10T05:30:21.830Z,14.9632
2023-04-10T05:31:25.745Z,14.6260
2023-04-10T05:32:29.632Z,15.9777
2023-04-10T05:33:33.526Z,15.8260
2023-04-10T05:34:37.638Z,16.4757
2023-04-10T05:35:41.573Z,13.6770
2023-04-10T05:36:45.472Z,16.9616
2023-04-10T05:37:49.582Z,16.4144
2023-04-10T05:38:53.837Z,15.1915
2023-04-10T05:39:58.001Z,16.4002
2023-04-10T05:41:01.938Z,16.4057
2023-04-10T05:42:05.816Z,16.7750
2023-04-10T05:43:09.946Z,15.5218
2023-04-10T05:44:13.827Z,15.8380
2023-04-10T05:45:17.980Z,15.0766
2023-04-10T05:46:21.946Z,16.2333
2023-04-10T05:47:25.819Z,16.5669
2023-04-10T05:48:29.687Z,15.2940
2023-04-10T05:49:33.594Z,15.7301
2023-04-10T05:50:37.729Z,16.7573
2023-04-10T05:51:41.640Z,14.3977
2023-04-10T05:52:45.523Z,14.0906
2023-04-10T05:53:49.432Z,14.3661
2023-04-10T05:54:53.328Z,14.6957
2023-04-10T05:55:57.232Z,15.1755
2023-04-10T05:57:01.121Z,14.3177
2023-04-10T05:58:05.368Z,14.7094
2023-04-10T05:59:09.236Z,16.1499
2023-04-10T06:00:13.196Z,16.1414
2023-04-10T06:01:17.086Z,15.7704
2023-04-10T06:02:21.184Z,14.8974
2023-04-10T06:03:25.324Z,15.3169
2023-04-10T06:04:29.354Z,14.0648
2023-04-10T06:05:33.387Z,13.6499
2023-04-10T06:06:37.293Z,16.0340
2023-04-10T06:07:41.187Z,16.6297
2023-04-10T06:08:45.105Z,18.5829
2023-04-10T06:09:49.017Z,15.5848
2023-04-10T06:10:52.918Z,16.7291
2023-04-10T06:11:56.801Z,15.1459
2023-04-10T06:13:00.690Z,14.9524
2023-04-10T06:14:04.604Z,15.2202
2023-04-10T06:15:08.481Z,15.1599
2023-04-10T06:16:12.420Z,15.5486
2023-04-10T06:17:16.309Z,16.2513
2023-04-10T06:18:20.230Z,14.7444
2023-04-10T06:19:24.127Z,15.4670
2023-04-10T06:20:28.097Z,13.2940
2023-04-10T06:21:31.964Z,15.5079
2023-04-10T06:22:35.875Z,14.8666
2023-04-10T06:23:39.745Z,14.5129
2023-04-10T06:24:43.648Z,15.3742
2023-04-10T06:25:47.706Z,14.4521
2023-04-10T06:26:51.556Z,15.3725
2023-04-10T06:27:55.467Z,15.1565
2023-04-10T06:28:59.373Z,14.5687
2023-04-10T06:30:03.418Z,14.6645
2023-04-10T06:31:07.316Z,15.2128
2023-04-10T06:32:11.210Z,14.6624
2023-04-10T06:33:15.090Z,13.7597
2023-04-10T06:34:18.989Z,14.6613
2023-04-10T06:35:22.871Z,14.9304
2023-04-10T06:36:26.822Z,15.9008
2023-04-10T06:37:30.726Z,13.5371
2023-04-10T06:38:34.610Z,14.2829
2023-04-10T06:39:38.506Z,13.0705
2023-04-10T06:40:42.398Z,14.9119
2023-04-10T06:41:46.300Z,13.2635
2023-04-10T06:42:50.366Z,14.0198
2023-04-10T06:43:54.242Z,13.0194
2023-04-10T06:44:58.122Z,14.1233
2023-04-10T06:46:02.050Z,12.1896
2023-04-10T06:47:06.015Z,13.0068
2023-04-10T06:48:09.945Z,14.8623
2023-04-10T06:49:13.825Z,14.5257
2023-04-10T06:50:17.727Z,14.1785
2023-04-10T06:51:21.608Z,12.4437
2023-04-10T06:52:25.522Z,14.7435
2023-04-10T06:53:29.397Z,14.1610
2023-04-10T06:54:33.271Z,14.0504
2023-04-10T06:55:37.183Z,15.3532
2023-04-10T06:56:41.084Z,13.1790
2023-04-10T06:57:45.024Z,14.7561
2023-04-10T06:58:48.901Z,15.2270
2023-04-10T06:59:52.959Z,16.0912
2023-04-10T07:00:56.852Z,13.3344
2023-04-10T07:02:00.767Z,13.8380
2023-04-10T07:03:04.665Z,15.0737
2023-04-10T07:04:08.674Z,13.4532
2023-04-10T07:05:12.733Z,13.2523
2023-04-10T07:06:16.641Z,15.7233
2023-04-10T07:07:20.562Z,15.3271
2023-04-10T07:08:24.500Z,15.8448
2023-04-10T07:09:28.389Z,15.8647
2023-04-10T07:10:32.301Z,15.6528
2023-04-10T07:11:36.171Z,17.0051
2023-04-10T07:12:40.096Z,16.6372
2023-04-10T07:13:43.959Z,15.2394
2023-04-10T07:14:47.867Z,14.0792
2023-04-10T07:15:52.021Z,15.4117
2023-04-10T07:16:55.915Z,14.6342
2023-04-10T07:17:59.864Z,16.9442
2023-04-10T07:19:03.736Z,14.2748
2023-04-10T07:20:07.625Z,13.5648
2023-04-10T07:21:11.526Z,13.9863
2023-04-10T07:22:15.419Z,15.7136
2023-04-10T07:23:19.552Z,13.9362
2023-04-10T07:24:23.441Z,14.4539
2023-04-10T07:25:27.354Z,15.9574
2023-04-10T07:26:31.246Z,14.9679
2023-04-10T07:27:35.364Z,14.8633
2023-04-10T07:28:39.221Z,13.2986
2023-04-10T07:29:43.298Z,14.7213
2023-04-10T07:30:47.438Z,15.2869
2023-04-10T07:31:51.455Z,15.3719
2023-04-10T07:32:55.527Z,14.7821
2023-04-10T07:33:59.451Z,12.4628
2023-04-10T07:35:03.565Z,15.0119
2023-04-10T07:36:07.523Z,14.0795
2023-04-10T07:37:11.390Z,15.5102
2023-04-10T07:38:15.300Z,13.6287
2023-04-10T07:39:19.187Z,14.3443
2023-04-10T07:40:23.328Z,13.7929
2023-04-10T07:41:27.232Z,12.5523
2023-04-10T07:42:31.135Z,13.3891
2023-04-10T07:43:35.252Z,13.7899
2023-04-10T07:44:39.211Z,14.2327
2023-04-10T07:45:43.070Z,13.2617
2023-04-10T07:46:46.972Z,13.2691
2023-04-10T07:47:51.098Z,12.6537
2023-04-10T07:48:55.447Z,13.7860
2023-04-10T07:49:59.675Z,14.5072
2023-04-10T07:51:03.846Z,16.3870
2023-04-10T07:52:07.732Z,14.7486
2023-04-10T07:53:11.673Z,15.0241
2023-04-10T07:54:15.563Z,13.1878
2023-04-10T07:55:19.487Z,12.9776
2023-04-10T07:56:23.360Z,13.2576
2023-04-10T07:57:27.267Z,12.5714
2023-04-10T07:58:31.374Z,13.9284
2023-04-10T07:59:35.301Z,14.1234
2023-04-10T08:00:39.268Z,12.2075
2023-04-10T08:01:43.195Z,11.5532
2023-04-10T08:02:47.218Z,15.8692
2023-04-10T08:03:51.411Z,13.6869
2023-04-10T08:04:55.676Z,13.4520
2023-04-10T08:05:59.670Z,12.9899
2023-04-10T08:07:03.567Z,11.0481
2023-04-10T08:08:07.701Z,12.7075
2023-04-10T08:09:11.577Z,13.0427
2023-04-10T08:10:15.494Z,12.3002
2023-04-10T08:11:19.675Z,14.2188
2023-04-10T08:12:23.574Z,14.2249
2023-04-10T08:13:27.469Z,13.1753
2023-04-10T08:14:31.369Z,12.2303
2023-04-10T08:15:35.487Z,12.7079
2023-04-10T08:16:39.530Z,11.0519
2023-04-10T08:17:43.440Z,11.1729
2023-04-10T08:18:43.797Z,11.8089
2023-04-10T08:19:47.681Z,11.4576
2023-04-10T08:20:51.819Z,11.6431
2023-04-10T08:21:55.705Z,12.2065
2023-04-10T08:23:12.424Z,12.8648
2023-04-10T08:24:04.313Z,11.6749
2023-04-10T08:25:08.208Z,10.9081
2023-04-10T08:26:12.112Z,11.0819
2023-04-10T08:27:16.013Z,10.7508
2023-04-10T08:28:19.905Z,12.1205
2023-04-10T08:30:27.574Z,11.2048
2023-04-10T08:31:31.792Z,13.0566
2023-04-10T08:32:35.725Z,12.8055
2023-04-10T08:33:39.888Z,10.1696
2023-04-10T08:34:43.779Z,11.1702
2023-04-10T08:35:47.739Z,13.0979
2023-04-10T08:36:51.653Z,11.9086
2023-04-10T08:38:11.634Z,11.6949
2023-04-10T08:39:00.040Z,11.9877
2023-04-10T08:40:03.944Z,10.8138
2023-04-10T08:41:04.056Z,11.7526
2023-04-10T08:42:07.958Z,10.1328
2023-04-10T08:43:11.863Z,9.7708
2023-04-10T08:44:15.769Z,10.1650
2023-04-10T08:45:19.670Z,10.7928
2023-04-10T08:46:23.633Z,10.5811
2023-04-10T08:47:27.532Z,11.7103
2023-04-10T08:48:31.627Z,11.3837
2023-04-10T08:49:35.508Z,10.2752
2023-04-10T08:50:39.664Z,10.8267
2023-04-10T08:51:43.545Z,9.7405
2023-04-10T08:52:47.429Z,10.8412
2023-04-10T08:53:51.323Z,9.9857
2023-04-10T08:54:55.223Z,9.5647
2023-04-10T08:55:59.364Z,8.8005
2023-04-10T08:57:03.271Z,10.2846
2023-04-10T08:58:07.157Z,11.6813
2023-04-10T08:59:11.078Z,10.5762
2023-04-10T09:00:25.604Z,9.7587
2023-04-10T09:01:19.671Z,10.3749
2023-04-10T09:02:23.714Z,9.8550
2023-04-10T09:03:27.874Z,9.2175
2023-04-10T09:04:32.087Z,9.4415
2023-04-10T09:05:36.082Z,11.0234
2023-04-10T09:06:40.255Z,11.0327
2023-04-10T09:07:44.142Z,10.5827
2023-04-10T09:08:48.305Z,8.2117
2023-04-10T09:09:52.201Z,9.8167
2023-04-10T09:10:56.470Z,8.8326
2023-04-10T09:12:00.518Z,8.5567
2023-04-10T09:13:04.761Z,8.6066
2023-04-10T09:14:08.667Z,10.0008
2023-04-10T09:15:12.572Z,8.9367
2023-04-10T09:16:16.488Z,8.2864
2023-04-10T09:17:20.367Z,8.9748
2023-04-10T09:18:24.525Z,9.0764
2023-04-10T09:19:28.426Z,9.6290
2023-04-10T09:20:32.295Z,8.8772
2023-04-10T09:21:36.421Z,8.9340
2023-04-10T09:22:40.315Z,9.4882
2023-04-10T09:23:44.201Z,8.1722
2023-04-10T09:24:48.137Z,8.8227
2023-04-10T09:25:52.044Z,9.3172
2023-04-10T09:26:55.966Z,8.9926
2023-04-10T09:27:59.832Z,8.2554
2023-04-10T09:29:03.970Z,7.4057
2023-04-10T09:30:07.850Z,8.0369
2023-04-10T09:31:11.783Z,8.2951
2023-04-10T09:32:15.642Z,8.1227
2023-04-10T09:33:19.540Z,8.8202
2023-04-10T09:34:23.666Z,9.5701
2023-04-10T09:35:27.544Z,9.5414
2023-04-10T09:36:31.452Z,7.8480
2023-04-10T09:37:35.338Z,8.2801
2023-04-10T09:38:39.230Z,7.6305
2023-04-10T09:39:43.215Z,8.3634
2023-04-10T09:40:47.205Z,9.3236
2023-04-10T09:41:51.093Z,7.4079
2023-04-10T09:42:55.016Z,7.4775
2023-04-10T09:43:59.222Z,10.2964
2023-04-10T09:45:03.089Z,10.3161
2023-04-10T09:46:07.035Z,8.5871
2023-04-10T09:47:10.917Z,7.5704
2023-04-10T09:48:14.828Z,7.5481
2023-04-10T09:49:18.833Z,8.8225
2023-04-10T09:50:22.774Z,7.9547
2023-04-10T09:51:26.851Z,7.4011
2023-04-10T09:52:30.785Z,7.0029
2023-04-10T09:53:34.686Z,8.5086
2023-04-10T09:54:38.590Z,8.6243
2023-04-10T09:55:42.472Z,9.6267
2023-04-10T09:56:46.379Z,8.1986
2023-04-10T09:57:50.257Z,7.9776
2023-04-10T09:58:54.567Z,8.1542
2023-04-10T09:59:58.597Z,7.0038
2023-04-10T10:01:02.693Z,7.9534
2023-04-10T10:02:06.728Z,7.9738
2023-04-10T10:03:10.818Z,8.4692
2023-04-10T10:04:14.886Z,8.7428
2023-04-10T10:05:18.734Z,7.9024
2023-04-10T10:06:22.630Z,8.6210
2023-04-10T10:07:26.512Z,8.4998
2023-04-10T10:08:30.655Z,6.7715
2023-04-10T10:09:34.547Z,7.5193
2023-04-10T10:10:38.453Z,8.2455
2023-04-10T10:11:42.339Z,8.1693
2023-04-10T10:12:46.239Z,7.1104
2023-04-10T10:13:50.120Z,6.6875
2023-04-10T10:14:54.027Z,7.2641
2023-04-10T10:15:57.959Z,7.2018
2023-04-10T10:17:01.860Z,7.5091
2023-04-10T10:18:05.759Z,7.2966
2023-04-10T10:19:09.962Z,8.0341
2023-04-10T10:20:13.875Z,7.5537
2023-04-10T10:21:18.057Z,6.6503
2023-04-10T10:22:21.951Z,8.7742
2023-04-10T10:23:25.835Z,9.1694
2023-04-10T10:24:29.755Z,8.0385
2023-04-10T10:25:33.639Z,7.3008
2023-04-10T10:26:37.550Z,8.5719
2023-04-10T10:27:41.435Z,6.5099
2023-04-10T10:28:45.585Z,6.5058
2023-04-10T10:29:49.471Z,6.5505
2023-04-10T10:30:53.392Z,8.7389
2023-04-10T10:31:57.352Z,7.2315
2023-04-10T10:33:01.291Z,6.5339
2023-04-10T10:34:05.171Z,6.5210
2023-04-10T10:35:09.078Z,5.8620
2023-04-10T10:36:13.179Z,6.6328
2023-04-10T10:37:17.098Z,7.2497
2023-04-10T10:38:20.983Z,8.8254
2023-04-10T10:39:24.893Z,6.1596
2023-04-10T10:40:28.777Z,6.7124
2023-04-10T10:41:32.717Z,8.3155
2023-04-10T10:42:36.609Z,8.1630
2023-04-10T10:43:40.738Z,5.9458
2023-04-10T10:44:44.614Z,6.8636
2023-04-10T10:45:48.550Z,7.6124
2023-04-10T10:46:52.430Z,7.1559
2023-04-10T10:47:56.361Z,7.5053
2023-04-10T10:49:00.467Z,6.2646
2023-04-10T10:50:04.379Z,7.2374
2023-04-10T10:51:08.265Z,6.0414
2023-04-10T10:52:12.398Z,6.8817
2023-04-10T10:53:16.291Z,7.2501
2023-04-10T10:54:20.196Z,7.8236
2023-04-10T10:55:24.087Z,8.4460
2023-04-10T10:56:27.995Z,7.7263
2023-04-10T10:57:31.874Z,6.1991
2023-04-10T10:58:35.777Z,6.9155
2023-04-10T10:59:39.663Z,6.8734
2023-04-10T11:00:43.615Z,7.2139
2023-04-10T11:01:47.878Z,6.6083
2023-04-10T11:02:51.904Z,6.7516
2023-04-10T11:03:56.124Z,6.8185
2023-04-10T11:05:00.117Z,7.0485
2023-04-10T11:06:03.964Z,8.1023
2023-04-10T11:07:07.869Z,6.8685
2023-04-10T11:08:11.770Z,5.5031
2023-04-10T11:09:15.790Z,7.4417
2023-04-10T11:10:19.675Z,7.1329
2023-04-10T11:11:23.888Z,6.6894
2023-04-10T11:12:27.792Z,7.3941
2023-04-10T11:13:31.710Z,6.3850
2023-04-10T11:14:35.614Z,5.8255
2023-04-10T11:15:39.510Z,7.2650
2023-04-10T11:16:43.834Z,7.8616
2023-04-10T11:17:47.956Z,6.8603
2023-04-10T11:19:02.671Z,7.3365
2023-04-10T11:19:56.353Z,5.6052
2023-04-10T11:21:00.237Z,6.2808
2023-04-10T11:22:04.253Z,7.1934
2023-04-10T11:23:08.167Z,7.5704
2023-04-10T11:24:12.334Z,7.0996
2023-04-10T11:25:16.224Z,7.0361
2023-04-10T11:26:20.122Z,7.3455
2023-04-10T11:27:24.012Z,7.3598
2023-04-10T11:28:27.897Z,6.1417
2023-04-10T11:29:31.804Z,7.1159
2023-04-10T11:30:35.700Z,7.9558
2023-04-10T11:31:39.882Z,7.4946
2023-04-10T11:32:43.836Z,7.1814
2023-04-10T11:33:47.726Z,8.0711
2023-04-10T11:34:51.823Z,7.7770
2023-04-10T11:35:55.747Z,6.2493
2023-04-10T11:36:59.614Z,5.9743
2023-04-10T11:38:03.514Z,7.2140
2023-04-10T11:39:07.626Z,6.2105
2023-04-10T11:40:11.522Z,7.1954
2023-04-10T11:41:15.400Z,8.0744
2023-04-10T11:42:19.618Z,6.8784
2023-04-10T11:43:23.669Z,5.8924
2023-04-10T11:44:27.589Z,8.2017
2023-04-10T11:45:31.480Z,6.1194
2023-04-10T11:46:35.399Z,7.4937
2023-04-10T11:47:39.314Z,8.0128
2023-04-10T11:48:43.170Z,7.0231
2023-04-10T11:49:47.287Z,8.5087
2023-04-10T11:50:51.189Z,8.2613
2023-04-10T11:51:55.289Z,7.4976
2023-04-10T11:52:59.167Z,8.7946
2023-04-10T11:54:03.074Z,7.3802
2023-04-10T11:55:06.941Z,6.5215
2023-04-10T11:56:10.855Z,7.5784
2023-04-10T11:57:14.967Z,7.6056
2023-04-10T11:58:18.860Z,6.4978
2023-04-10T11:59:22.747Z,8.1078
2023-04-10T12:00:26.642Z,7.5889
2023-04-10T12:01:30.532Z,6.0242
2023-04-10T12:02:34.493Z,5.9810
2023-04-10T12:03:38.501Z,7.4294
2023-04-10T12:04:42.847Z,8.0097
2023-04-10T12:05:47.007Z,7.7313
2023-04-10T12:06:50.884Z,7.7538
2023-04-10T12:07:54.791Z,8.1017
2023-04-10T12:08:58.760Z,7.5553
2023-04-10T12:10:02.671Z,6.9356
2023-04-10T12:11:06.552Z,7.5457
2023-04-10T12:12:10.454Z,7.1049
2023-04-10T12:13:14.323Z,8.4480
2023-04-10T12:14:18.226Z,7.9028
2023-04-10T12:15:22.109Z,9.2037
2023-04-10T12:16:26.006Z,7.8384
2023-04-10T12:17:29.905Z,7.5366
2023-04-10T12:18:33.810Z,7.3569
2023-04-10T12:19:37.912Z,6.8619
2023-04-10T12:20:41.822Z,7.8113
2023-04-10T12:21:45.773Z,7.7946
2023-04-10T12:22:49.635Z,7.1426
2023-04-10T12:23:53.516Z,8.5508
2023-04-10T12:24:57.655Z,7.4387
2023-04-10T12:26:01.531Z,9.1764
2023-04-10T12:27:05.436Z,8.1217
2023-04-10T12:28:09.336Z,6.9673
2023-04-10T12:29:13.245Z,7.5953
2023-04-10T12:30:17.145Z,7.0307
2023-04-10T12:31:21.091Z,7.2497
2023-04-10T12:32:24.997Z,8.0909
2023-04-10T12:33:28.889Z,7.4862
2023-04-10T12:34:33.039Z,7.6692
2023-04-10T12:35:36.992Z,7.8912
2023-04-10T12:36:41.129Z,6.6090
2023-04-10T12:37:45.026Z,7.7187
2023-04-10T12:38:48.915Z,6.5555
2023-04-10T12:39:52.851Z,5.2566
2023-04-10T12:40:56.745Z,6.7186
2023-04-10T12:42:00.645Z,6.9968
2023-04-10T12:43:04.523Z,7.2829
2023-04-10T12:44:08.649Z,7.2135
2023-04-10T12:45:12.531Z,6.4468
2023-04-10T12:46:16.459Z,6.1347
2023-04-10T12:47:20.306Z,6.6030
2023-04-10T12:48:24.208Z,7.1564
2023-04-10T12:49:28.405Z,6.6597
2023-04-10T12:50:32.309Z,8.7490
2023-04-10T12:51:36.419Z,7.4016
2023-04-10T12:52:40.343Z,7.1832
2023-04-10T12:53:44.219Z,6.0927
2023-04-10T12:54:48.122Z,7.3341
2023-04-10T12:55:52.012Z,6.8036
2023-04-10T12:56:55.922Z,6.7738
2023-04-10T12:57:59.819Z,6.7931
2023-04-10T12:59:03.728Z,6.6072
2023-04-10T13:00:07.624Z,7.1264
2023-04-10T13:01:11.538Z,6.7343
2023-04-10T13:02:15.718Z,6.8662
2023-04-10T13:03:19.707Z,6.5854
2023-04-10T13:04:23.996Z,6.3661
2023-04-10T13:05:27.974Z,6.6677
2023-04-10T13:06:31.859Z,6.4691